Time;durP1;ratioP1;P1;durP2;ratioP2;P2;SDS_P1;SDS_P2;PMS_P1;PMS_P2;Temp;Humidity;BMP_temperature;BMP_pressure;BME280_temperature;BME280_humidity;BME280_pressure;Samples;Min_cycle;Max_cycle;Signal;HPM_P1;HPM_P2
2023/04/01 00:01:00;;;;;;;4.47;1.30;;;;;;;18.08;61.58;99028.31;5052044;28;20465;-67
2023/04/01 00:03:26;;;;;;;3.53;1.70;;;;;;;18.10;61.54;99033.59;5051635;28;20196;-67
2023/04/01 00:05:52;;;;;;;2.77;1.20;;;;;;;18.09;61.23;99029.94;5081864;28;20202;-67
2023/04/01 00:08:18;;;;;;;5.20;1.90;;;;;;;18.10;61.84;99027.88;5061447;28;21163;-67
2023/04/01 00:10:43;;;;;;;2.17;1.10;;;;;;;18.08;61.76;99028.31;5034791;28;20160;-67
2023/04/01 00:13:09;;;;;;;4.23;1.43;;;;;;;18.10;61.20;99027.88;5070747;28;20178;-67
2023/04/01 00:15:34;;;;;;;6.60;1.67;;;;;;;18.10;61.55;99033.59;5053877;28;20187;-67
2023/04/01 00:18:00;;;;;;;6.50;1.60;;;;;;;18.09;61.30;99032.78;5051368;28;20172;-67
2023/04/01 00:20:26;;;;;;;3.47;1.47;;;;;;;18.10;61.62;99028.69;5035010;28;20261;-67
2023/04/01 00:22:51;;;;;;;3.90;1.33;;;;;;;18.08;61.64;99030.34;5068984;28;20436;-67
2023/04/01 00:25:17;;;;;;;4.23;1.33;;;;;;;18.08;61.77;99031.16;5069939;28;20186;-67
2023/04/01 00:27:42;;;;;;;3.77;1.90;;;;;;;18.09;61.34;99031.97;5062868;28;20209;-67
2023/04/01 00:30:08;;;;;;;3.93;1.50;;;;;;;18.08;61.60;99018.91;5071237;28;20229;-67
2023/04/01 00:32:34;;;;;;;3.20;1.27;;;;;;;18.08;61.45;99014.03;5053419;28;20195;-68
2023/04/01 00:35:00;;;;;;;2.80;1.23;;;;;;;18.08;61.62;99025.44;5066387;28;20277;-67
2023/04/01 00:37:26;;;;;;;3.50;1.77;;;;;;;18.08;61.60;99016.88;5052229;28;20988;-67
2023/04/01 00:39:52;;;;;;;3.10;1.20;;;;;;;18.07;61.39;99026.66;5070105;28;20224;-67
2023/04/01 00:42:17;;;;;;;7.90;1.60;;;;;;;18.10;61.40;99027.88;5069963;28;20965;-67
2023/04/01 00:44:47;;;;;;;4.70;1.27;;;;;;;18.08;61.66;99036.88;5053562;28;20207;-66
2023/04/01 00:47:13;;;;;;;2.57;1.20;;;;;;;18.09;61.62;99020.53;5044640;28;20657;-67
2023/04/01 00:49:40;;;;;;;4.97;1.20;;;;;;;18.07;61.81;99035.22;5032902;28;20422;-67
2023/04/01 00:52:06;;;;;;;2.67;1.10;;;;;;;18.08;61.52;99031.16;5051380;28;20249;-67
2023/04/01 00:54:32;;;;;;;3.57;0.90;;;;;;;18.05;61.49;99031.13;5032793;28;20484;-67
2023/04/01 00:57:05;;;;;;;3.70;1.63;;;;;;;18.04;61.71;99024.63;5035099;28;20425;-67
2023/04/01 00:59:35;;;;;;;4.17;1.30;;;;;;;18.05;61.41;99028.28;5070416;28;20424;-67
2023/04/01 01:02:06;;;;;;;3.80;1.57;;;;;;;18.04;61.36;99024.63;5047742;28;20504;-68
2023/04/01 01:04:32;;;;;;;3.17;1.17;;;;;;;18.06;61.42;99022.16;5056479;28;20445;-67
2023/04/01 01:07:16;;;;;;;3.47;1.07;;;;;;;18.03;61.40;99025.84;5090548;28;20493;-67
2023/04/01 01:10:37;;;;;;;2.93;1.23;;;;;;;18.05;61.31;99025.44;5072441;28;20441;-68
2023/04/01 01:13:08;;;;;;;2.67;1.20;;;;;;;18.03;61.46;99034.41;5032067;28;20438;-67
2023/04/01 01:15:55;;;;;;;4.00;1.20;;;;;;;18.04;61.63;99023.81;5066161;28;20800;-67
2023/04/01 01:18:26;;;;;;;5.03;2.33;;;;;;;18.02;61.54;99015.63;5066482;28;20446;-67
2023/04/01 01:21:30;;;;;;;3.67;1.50;;;;;;;18.01;61.69;99008.28;5069609;28;20465;-67
2023/04/01 01:24:17;;;;;;;2.43;0.90;;;;;;;18.03;61.77;99005.88;5008025;28;20449;-68
2023/04/01 01:26:58;;;;;;;4.60;1.30;;;;;;;18.02;61.84;99009.91;5052351;28;20409;-67
2023/04/01 01:29:42;;;;;;;4.37;1.30;;;;;;;18.02;61.54;99007.06;5061955;28;20457;-67
2023/04/01 01:32:30;;;;;;;3.10;1.00;;;;;;;18.01;61.36;99008.28;5017486;28;20862;-68
2023/04/01 01:35:23;;;;;;;3.53;1.37;;;;;;;18.03;61.36;99008.72;5056858;28;20417;-68
2023/04/01 01:37:51;;;;;;;3.83;1.20;;;;;;;18.01;61.47;98996.06;5035831;28;20538;-67
2023/04/01 01:40:16;;;;;;;2.60;0.90;;;;;;;18.03;61.50;99002.19;5032086;28;20442;-67
2023/04/01 01:42:45;;;;;;;6.00;1.80;;;;;;;18.02;61.55;99004.22;5017693;28;20556;-67
2023/04/01 01:45:11;;;;;;;4.00;1.40;;;;;;;18.03;61.54;98999.31;5051377;28;20183;-67
2023/04/01 01:47:36;;;;;;;3.10;1.00;;;;;;;18.01;61.53;98994.03;5051731;28;20428;-67
2023/04/01 01:50:03;;;;;;;3.83;1.20;;;;;;;18.02;61.61;99007.06;5038208;28;20535;-67
2023/04/01 01:52:28;;;;;;;3.63;1.30;;;;;;;18.02;61.55;99006.28;5063210;28;20302;-68
2023/04/01 01:54:56;;;;;;;4.77;1.20;;;;;;;18.02;61.57;98997.69;5047416;28;20477;-67
2023/04/01 01:57:36;;;;;;;3.17;1.13;;;;;;;18.00;61.78;99000.97;5049586;28;20540;-67
2023/04/01 02:00:12;;;;;;;3.67;1.47;;;;;;;18.03;61.46;98997.31;5015711;28;20410;-66
2023/04/01 02:02:40;;;;;;;3.23;1.50;;;;;;;18.02;61.22;99004.22;5029910;28;20421;-67
2023/04/01 02:05:05;;;;;;;3.13;1.40;;;;;;;18.02;61.46;99011.97;5025801;28;20540;-67
2023/04/01 02:07:32;;;;;;;5.50;1.67;;;;;;;18.01;61.48;98990.38;5017378;28;20972;-67
2023/04/01 02:09:57;;;;;;;2.50;1.37;;;;;;;18.01;61.71;98999.72;5048148;28;20176;-67
2023/04/01 02:12:23;;;;;;;3.17;0.90;;;;;;;18.01;61.58;98999.72;5049222;28;20425;-66
2023/04/01 02:15:00;;;;;;;3.40;1.20;;;;;;;18.02;61.34;99009.91;5033310;28;20195;-67
2023/04/01 02:17:28;;;;;;;2.80;0.87;;;;;;;18.02;61.25;99014.84;5015072;28;20164;-67
2023/04/01 02:19:57;;;;;;;2.53;1.33;;;;;;;18.02;61.44;99009.91;5045898;28;20449;-67
2023/04/01 02:22:25;;;;;;;2.50;1.07;;;;;;;18.03;61.40;99007.91;5051077;28;20539;-67
2023/04/01 02:24:52;;;;;;;2.27;0.90;;;;;;;18.00;61.50;98998.09;5065574;28;20459;-67
2023/04/01 02:27:17;;;;;;;4.13;1.27;;;;;;;18.00;61.63;98997.28;5031174;28;20478;-67
2023/04/01 02:29:43;;;;;;;3.63;1.10;;;;;;;17.99;61.61;98998.50;5031214;28;20413;-67
2023/04/01 02:32:08;;;;;;;4.90;1.07;;;;;;;18.00;61.38;98995.25;5048952;28;20164;-67
2023/04/01 02:34:34;;;;;;;3.87;1.63;;;;;;;17.97;61.41;99001.75;5033403;28;20196;-67
2023/04/01 02:36:59;;;;;;;4.10;1.40;;;;;;;17.99;61.52;98998.50;5031166;28;20164;-67
2023/04/01 02:39:26;;;;;;;2.53;1.10;;;;;;;17.98;61.45;99003.41;5049541;28;20631;-67
2023/04/01 02:41:51;;;;;;;2.83;1.10;;;;;;;17.96;61.47;98988.72;5032925;28;20246;-67
2023/04/01 02:44:17;;;;;;;8.80;1.20;;;;;;;17.96;61.49;98994.44;5049101;28;20446;-67
2023/04/01 02:46:43;;;;;;;2.20;1.00;;;;;;;17.97;61.27;99010.31;5033107;28;20196;-67
2023/04/01 02:49:08;;;;;;;2.30;0.80;;;;;;;17.99;61.51;98998.50;5049084;28;20160;-68
2023/04/01 02:51:34;;;;;;;2.77;1.00;;;;;;;17.97;61.30;98998.91;5054966;28;20551;-67
2023/04/01 02:53:59;;;;;;;3.30;1.27;;;;;;;17.96;61.39;98991.56;5049111;28;20253;-66
2023/04/01 02:56:25;;;;;;;3.03;1.50;;;;;;;17.95;61.61;98992.81;5048915;28;20188;-67
2023/04/01 02:58:51;;;;;;;3.13;1.50;;;;;;;17.95;61.20;98987.09;5033540;28;20957;-67
2023/04/01 03:01:17;;;;;;;4.30;1.17;;;;;;;17.96;61.31;98977.28;5013471;28;20557;-65
2023/04/01 03:03:42;;;;;;;3.30;1.30;;;;;;;17.96;61.40;98982.22;5064799;28;20171;-67
2023/04/01 03:06:09;;;;;;;2.90;1.13;;;;;;;17.96;61.75;98979.34;5082744;28;20221;-67
2023/04/01 03:08:34;;;;;;;2.57;1.20;;;;;;;17.96;61.42;98982.22;5069814;28;20186;-67
2023/04/01 03:11:00;;;;;;;2.97;1.00;;;;;;;17.95;61.60;98978.53;5050204;28;20441;-67
2023/04/01 03:13:25;;;;;;;2.70;1.20;;;;;;;17.96;61.42;98982.22;5049032;28;20175;-67
2023/04/01 03:15:51;;;;;;;3.10;0.90;;;;;;;17.96;61.47;98987.91;5046726;28;20667;-68
2023/04/01 03:18:16;;;;;;;3.70;1.30;;;;;;;17.95;61.48;98978.53;5050595;28;20182;-67
2023/04/01 03:20:42;;;;;;;3.10;1.00;;;;;;;17.95;61.54;98983.41;5068236;28;20745;-67
2023/04/01 03:23:08;;;;;;;2.70;0.90;;;;;;;17.95;61.27;98987.09;5054126;28;20183;-66
2023/04/01 03:25:33;;;;;;;4.53;1.37;;;;;;;17.94;61.57;98979.75;5051018;28;20168;-67
2023/04/01 03:27:59;;;;;;;3.00;1.03;;;;;;;17.92;61.42;98970.81;5053720;28;20190;-67
2023/04/01 03:30:25;;;;;;;2.10;0.97;;;;;;;17.93;61.60;98972.44;5053774;28;20190;-67
2023/04/01 03:32:51;;;;;;;3.10;1.20;;;;;;;17.93;61.57;98972.44;5071652;28;20497;-66
2023/04/01 03:35:16;;;;;;;2.37;1.13;;;;;;;17.94;61.54;98976.91;5038345;28;20176;-67
2023/04/01 03:37:41;;;;;;;3.70;1.50;;;;;;;17.95;61.69;98974.84;5052040;28;20624;-67
2023/04/01 03:40:07;;;;;;;5.10;1.60;;;;;;;17.93;61.42;98968.75;5054587;28;20646;-67
2023/04/01 03:42:33;;;;;;;4.53;1.60;;;;;;;17.93;61.27;98972.44;5044205;28;20660;-67
2023/04/01 03:44:58;;;;;;;3.10;1.07;;;;;;;17.93;61.22;98966.72;5072084;28;20171;-67
2023/04/01 03:47:24;;;;;;;2.60;1.00;;;;;;;17.95;61.13;98974.84;5070421;28;20167;-67
2023/04/01 03:49:49;;;;;;;3.20;1.40;;;;;;;17.93;61.63;98966.72;5070259;28;20191;-67
2023/04/01 03:52:15;;;;;;;2.60;1.10;;;;;;;17.92;61.43;98970.81;5071801;28;20241;-67
2023/04/01 03:54:40;;;;;;;4.13;1.60;;;;;;;17.93;61.38;98971.59;5071690;28;20209;-67
2023/04/01 03:57:05;;;;;;;2.70;1.43;;;;;;;17.95;61.17;98972.81;5067857;28;20244;-66
2023/04/01 03:59:31;;;;;;;2.80;0.90;;;;;;;17.96;61.40;98976.50;5051955;28;20168;-68
2023/04/01 04:01:56;;;;;;;2.83;1.17;;;;;;;17.93;61.56;98971.59;5052068;28;20952;-67
2023/04/01 04:04:22;;;;;;;2.70;0.90;;;;;;;17.95;61.10;98974.84;5059775;28;20596;-67
2023/04/01 04:06:47;;;;;;;3.00;1.10;;;;;;;17.92;61.67;98975.69;5091744;28;20186;-67
2023/04/01 04:09:13;;;;;;;2.37;1.10;;;;;;;17.95;61.41;98975.66;5062068;28;20197;-67
2023/04/01 04:11:39;;;;;;;2.90;1.23;;;;;;;17.91;61.54;98972.00;5053772;28;20171;-67
2023/04/01 04:14:04;;;;;;;2.67;1.10;;;;;;;17.91;61.64;98963.44;5071359;28;20167;-67
2023/04/01 04:16:30;;;;;;;2.27;1.00;;;;;;;17.93;61.47;98975.28;5071358;28;20166;-67
2023/04/01 04:18:55;;;;;;;1.93;0.90;;;;;;;17.92;61.07;98979.38;5067555;28;20191;-68
2023/04/01 04:21:20;;;;;;;2.50;0.90;;;;;;;17.92;61.42;98978.53;5071173;28;20205;-67
2023/04/01 04:23:46;;;;;;;2.90;0.93;;;;;;;17.90;61.27;98970.38;5067836;28;20187;-67
2023/04/01 04:26:12;;;;;;;3.13;1.30;;;;;;;17.91;61.20;98976.91;5051228;28;20695;-67
2023/04/01 04:28:38;;;;;;;2.93;1.20;;;;;;;17.92;61.53;98967.94;5033400;28;20246;-67
2023/04/01 04:31:05;;;;;;;3.30;0.90;;;;;;;17.91;61.21;98972.00;5022433;28;20434;-67
2023/04/01 04:33:30;;;;;;;3.10;1.20;;;;;;;17.90;61.28;98973.22;5051135;28;20178;-67
2023/04/01 04:35:56;;;;;;;3.13;0.93;;;;;;;17.91;61.42;98968.34;5052837;28;20441;-67
2023/04/01 04:38:21;;;;;;;2.77;1.00;;;;;;;17.90;61.41;98976.09;5050620;28;20182;-67
2023/04/01 04:40:47;;;;;;;2.63;1.30;;;;;;;17.90;61.35;98981.78;5050948;28;20211;-67
2023/04/01 04:43:13;;;;;;;2.80;1.10;;;;;;;17.91;61.56;98963.44;5053063;28;20187;-67
2023/04/01 04:45:39;;;;;;;4.53;1.10;;;;;;;17.89;61.46;98963.03;5050792;28;20194;-67
2023/04/01 04:48:05;;;;;;;2.60;1.33;;;;;;;17.90;61.39;98958.16;5052662;28;20474;-67
2023/04/01 04:50:31;;;;;;;3.63;1.00;;;;;;;17.88;61.44;98955.72;5033040;28;20223;-67
2023/04/01 04:52:56;;;;;;;2.53;1.10;;;;;;;17.90;61.37;98964.66;5064145;28;20546;-67
2023/04/01 04:55:22;;;;;;;2.77;1.10;;;;;;;17.90;61.68;98958.16;5052619;28;20222;-67
2023/04/01 04:57:47;;;;;;;2.63;1.10;;;;;;;17.87;61.31;98951.22;5067954;28;20175;-67
2023/04/01 05:00:13;;;;;;;4.83;1.47;;;;;;;17.91;61.25;98952.00;5055524;28;20195;-67
2023/04/01 05:02:38;;;;;;;2.90;1.23;;;;;;;17.90;61.27;98950.38;5052723;28;20290;-67
2023/04/01 05:05:04;;;;;;;4.60;1.70;;;;;;;17.88;61.28;98952.84;5067608;28;20642;-67
2023/04/01 05:07:30;;;;;;;3.50;0.93;;;;;;;17.92;61.29;98950.81;5076774;28;20252;-67
2023/04/01 05:09:55;;;;;;;2.43;0.93;;;;;;;17.91;61.28;98951.22;5070103;28;20413;-67
2023/04/01 05:12:21;;;;;;;2.33;0.90;;;;;;;17.92;61.26;98942.25;5069948;28;20175;-67
2023/04/01 05:14:46;;;;;;;5.13;1.33;;;;;;;17.90;61.08;98944.69;5052027;28;20167;-67
2023/04/01 05:17:12;;;;;;;2.63;1.00;;;;;;;17.90;61.24;98943.88;5066752;28;20190;-67
2023/04/01 05:19:37;;;;;;;4.43;1.37;;;;;;;17.89;61.41;98951.63;5069977;28;20179;-67
2023/04/01 05:22:03;;;;;;;3.33;1.00;;;;;;;17.93;61.11;98943.88;5069519;28;20198;-67
2023/04/01 05:24:28;;;;;;;3.67;1.10;;;;;;;17.92;61.22;98942.25;5061349;28;20183;-67
2023/04/01 05:26:54;;;;;;;2.50;0.90;;;;;;;17.93;60.95;98941.00;5032229;28;20563;-67
2023/04/01 05:29:19;;;;;;;4.60;0.90;;;;;;;17.92;61.48;98950.81;5049994;28;20635;-67
2023/04/01 05:31:45;;;;;;;2.43;1.43;;;;;;;17.91;60.99;98954.88;5067521;28;20707;-66
2023/04/01 05:34:10;;;;;;;3.77;1.10;;;;;;;17.92;61.40;98947.13;5055650;28;20195;-67
2023/04/01 05:36:36;;;;;;;1.70;0.90;;;;;;;17.92;61.34;98938.56;5031104;28;20168;-67
2023/04/01 05:39:01;;;;;;;1.97;0.80;;;;;;;17.89;61.17;98943.06;5062574;28;20550;-66
2023/04/01 05:41:26;;;;;;;2.77;1.00;;;;;;;17.88;61.09;98940.59;5068785;28;20199;-67
2023/04/01 05:43:52;;;;;;;2.80;0.70;;;;;;;17.89;61.09;98937.34;5065341;28;20191;-67
2023/04/01 05:46:17;;;;;;;2.17;0.87;;;;;;;17.91;61.60;98942.66;5016625;28;20174;-67
2023/04/01 05:48:43;;;;;;;2.17;0.90;;;;;;;17.90;61.06;98944.69;5065003;28;20585;-67
2023/04/01 05:51:13;;;;;;;3.17;1.20;;;;;;;17.89;61.36;98945.91;5069623;28;20545;-66
2023/04/01 05:53:38;;;;;;;4.47;1.43;;;;;;;17.90;61.23;98936.13;5067965;28;20249;-67
2023/04/01 05:56:04;;;;;;;2.30;1.10;;;;;;;17.89;61.33;98934.50;5051198;28;20426;-67
2023/04/01 05:58:30;;;;;;;2.47;1.17;;;;;;;17.88;61.03;98943.47;5049715;28;20160;-67
2023/04/01 06:01:02;;;;;;;2.40;0.93;;;;;;;17.88;61.41;98947.13;5057293;28;20226;-66
2023/04/01 06:03:28;;;;;;;2.90;1.13;;;;;;;17.88;60.90;98946.31;5068484;28;20155;-66
2023/04/01 06:05:53;;;;;;;3.10;0.90;;;;;;;17.89;61.11;98943.06;5065604;28;21141;-67
2023/04/01 06:08:19;;;;;;;2.43;1.10;;;;;;;17.89;61.23;98942.22;5070086;28;20175;-67
2023/04/01 06:11:08;;;;;;;2.90;1.17;;;;;;;17.89;61.49;98937.34;5032595;28;20912;-68
2023/04/01 06:13:33;;;;;;;3.53;1.20;;;;;;;17.88;61.30;98944.28;5040593;28;20908;-67
2023/04/01 06:16:26;;;;;;;3.00;1.07;;;;;;;17.91;60.81;98940.59;5066484;28;20429;-67
2023/04/01 06:19:17;;;;;;;3.33;1.10;;;;;;;17.90;61.10;98949.59;5069520;28;20171;-67
2023/04/01 06:22:04;;;;;;;3.30;1.00;;;;;;;17.92;61.17;98952.84;5020919;28;20529;-67
2023/04/01 06:24:41;;;;;;;2.60;1.10;;;;;;;17.89;61.25;98947.94;5069315;28;20460;-66
2023/04/01 06:27:22;;;;;;;4.17;1.30;;;;;;;17.89;61.20;98948.75;5054972;28;20437;-67
2023/04/01 06:29:54;;;;;;;2.27;0.90;;;;;;;17.90;61.39;98950.38;5031897;28;20497;-67
2023/04/01 06:32:47;;;;;;;2.77;1.10;;;;;;;17.87;61.04;98962.66;5034379;28;20461;-67
2023/04/01 06:35:34;;;;;;;4.13;1.10;;;;;;;17.89;61.51;98957.31;5048978;28;20410;-67
2023/04/01 06:38:11;;;;;;;2.80;0.80;;;;;;;17.89;60.94;98957.31;5051217;28;20897;-67
2023/04/01 06:40:45;;;;;;;4.10;1.40;;;;;;;17.88;61.37;98955.72;5066254;28;20845;-67
2023/04/01 06:43:26;;;;;;;1.80;0.70;;;;;;;17.89;61.15;98954.47;5068338;28;20397;-65
2023/04/01 06:46:29;;;;;;;2.47;0.93;;;;;;;17.90;60.97;98961.81;5050578;28;20489;-67
2023/04/01 06:49:16;;;;;;;2.33;0.93;;;;;;;17.90;61.19;98967.53;4986918;28;21012;-67
2023/04/01 06:51:51;;;;;;;3.00;1.30;;;;;;;17.89;60.89;98963.03;4994232;28;20951;-67
2023/04/01 06:54:34;;;;;;;1.60;0.80;;;;;;;17.92;61.22;98967.13;5034141;28;20488;-67
2023/04/01 06:57:20;;;;;;;1.80;0.70;;;;;;;17.91;61.33;98957.72;5031118;28;20937;-67
2023/04/01 06:59:46;;;;;;;2.37;0.97;;;;;;;17.92;61.16;98967.94;5064313;28;20409;-67
2023/04/01 07:02:30;;;;;;;2.43;1.00;;;;;;;17.93;60.95;98958.16;5069947;28;20511;-66
2023/04/01 07:04:55;;;;;;;2.63;1.20;;;;;;;17.93;61.13;98954.47;5067594;28;20166;-67
2023/04/01 07:07:30;;;;;;;2.20;0.83;;;;;;;17.92;61.16;98970.81;5054483;28;20448;-67
2023/04/01 07:09:59;;;;;;;2.63;1.00;;;;;;;17.91;61.20;98968.34;5053043;28;20178;-68
2023/04/01 07:12:30;;;;;;;3.10;1.20;;;;;;;17.90;61.16;98970.38;5039170;28;20458;-67
2023/04/01 07:14:56;;;;;;;3.70;0.90;;;;;;;17.91;61.09;98966.28;5068771;28;20425;-67
2023/04/01 07:17:28;;;;;;;2.07;1.03;;;;;;;17.92;60.97;98975.69;5051126;28;20464;-67
2023/04/01 07:20:26;;;;;;;2.80;0.87;;;;;;;17.90;60.99;98967.53;5037090;28;20186;-67
2023/04/01 07:22:52;;;;;;;2.77;1.10;;;;;;;17.90;61.28;98976.09;5045666;28;20462;-67
2023/04/01 07:25:27;;;;;;;1.90;0.90;;;;;;;17.92;60.84;98975.69;5071928;28;20478;-67
2023/04/01 07:27:56;;;;;;;2.60;1.10;;;;;;;17.88;61.06;98975.69;5049748;28;20443;-66
2023/04/01 07:30:22;;;;;;;1.87;0.90;;;;;;;17.89;60.76;98985.88;5051595;28;20441;-66
2023/04/01 07:33:11;;;;;;;2.70;0.93;;;;;;;17.91;61.08;98989.13;5060977;28;20397;-65
2023/04/01 07:36:05;;;;;;;2.67;1.30;;;;;;;17.89;61.08;98999.31;5054829;28;20410;-65
2023/04/01 07:38:50;;;;;;;2.17;0.90;;;;;;;17.88;61.60;98998.53;5049884;28;20444;-66
2023/04/01 07:41:31;;;;;;;2.13;1.03;;;;;;;17.88;61.04;99003.41;5053381;28;20943;-67
2023/04/01 07:44:15;;;;;;;3.50;1.03;;;;;;;17.87;61.13;99005.47;5041393;28;20453;-68
2023/04/01 07:46:45;;;;;;;5.03;1.30;;;;;;;17.84;60.92;98994.84;5035612;28;20429;-67
2023/04/01 07:49:29;;;;;;;2.97;1.30;;;;;;;17.81;60.80;98994.84;5050353;28;20445;-67
2023/04/01 07:51:58;;;;;;;5.13;2.00;;;;;;;17.80;59.78;99002.59;5053916;28;20491;-68
2023/04/01 07:54:33;;;;;;;6.33;1.87;;;;;;;17.80;60.23;98996.88;5069532;28;20441;-68
2023/04/01 07:57:19;;;;;;;8.33;1.40;;;;;;;17.77;60.13;99003.44;5052231;28;20794;-67
2023/04/01 08:00:39;;;;;;;7.70;1.97;;;;;;;17.78;59.97;99010.75;5033299;28;20529;-67
2023/04/01 08:03:24;;;;;;;14.07;3.07;;;;;;;17.77;59.41;99006.28;4989709;28;20447;-68
2023/04/01 08:06:03;;;;;;;24.50;3.27;;;;;;;17.78;59.26;99007.91;5049874;28;20455;-67
2023/04/01 08:08:31;;;;;;;49.10;4.00;;;;;;;17.79;59.43;99012.38;5068429;28;20476;-66
2023/04/01 08:11:04;;;;;;;49.50;5.60;;;;;;;17.83;60.42;99018.09;5070543;28;20413;-67
2023/04/01 08:13:52;;;;;;;41.70;5.97;;;;;;;17.83;59.28;99016.06;5071555;28;20405;-67
2023/04/01 08:16:24;;;;;;;36.87;3.63;;;;;;;17.90;59.14;99024.63;5038773;28;20464;-67
2023/04/01 08:19:27;;;;;;;25.27;3.77;;;;;;;17.84;58.91;99029.13;5053453;28;20413;-67
2023/04/01 08:21:52;;;;;;;29.70;3.90;;;;;;;17.82;59.03;99023.00;5070836;28;20467;-66
2023/04/01 08:24:41;;;;;;;41.87;3.40;;;;;;;17.85;58.90;99021.38;5053398;28;20772;-67
2023/04/01 08:27:16;;;;;;;23.50;3.43;;;;;;;17.83;59.02;99030.34;5033210;28;20230;-68
2023/04/01 08:29:48;;;;;;;21.53;3.93;;;;;;;17.83;59.18;99020.94;5017622;28;20464;-66
2023/04/01 08:32:16;;;;;;;21.73;4.10;;;;;;;17.84;59.53;99020.53;5053828;28;20443;-67
2023/04/01 08:34:47;;;;;;;21.63;3.47;;;;;;;17.83;59.48;99029.50;5033440;28;20837;-67
2023/04/01 08:37:18;;;;;;;25.83;4.50;;;;;;;17.83;59.67;99018.09;5033609;28;20410;-67
2023/04/01 08:40:11;;;;;;;28.43;4.37;;;;;;;17.92;60.42;99027.06;5052180;28;20441;-67
2023/04/01 08:43:10;;;;;;;25.37;4.10;;;;;;;17.93;60.45;99023.00;5032848;28;20461;-67
2023/04/01 08:45:41;;;;;;;26.67;3.80;;;;;;;17.92;60.89;99032.78;5034956;28;20769;-67
2023/04/01 08:48:25;;;;;;;17.23;3.27;;;;;;;17.93;60.27;99029.53;5032870;28;20872;-66
2023/04/01 08:50:59;;;;;;;26.60;3.13;;;;;;;17.97;59.80;99026.66;5060736;28;20416;-67
2023/04/01 08:53:47;;;;;;;20.40;3.27;;;;;;;17.96;60.01;99031.53;5070135;28;20525;-66
2023/04/01 08:56:34;;;;;;;16.07;3.13;;;;;;;17.93;60.19;99029.53;5066811;28;20506;-67
2023/04/01 08:59:44;;;;;;;15.47;3.27;;;;;;;17.94;60.85;99036.88;5070124;28;20924;-67
2023/04/01 09:02:23;;;;;;;14.43;2.20;;;;;;;17.95;60.91;99046.22;4988490;28;20492;-67
2023/04/01 09:05:26;;;;;;;23.63;3.77;;;;;;;17.93;60.51;99040.94;5035433;28;20531;-67
2023/04/01 09:08:10;;;;;;;9.03;1.80;;;;;;;17.88;60.24;99044.22;4968076;28;20480;-67
2023/04/01 09:11:10;;;;;;;7.43;1.97;;;;;;;17.86;58.98;99049.50;4967014;28;20781;-67
2023/04/01 09:13:47;;;;;;;7.60;1.73;;;;;;;17.84;58.89;99049.09;4938478;29;20546;-68
2023/04/01 09:16:30;;;;;;;7.80;2.50;;;;;;;17.86;58.24;99062.97;5052803;28;20776;-67
2023/04/01 09:19:26;;;;;;;10.80;2.33;;;;;;;17.85;58.49;99056.44;5069096;28;20920;-67
2023/04/01 09:22:12;;;;;;;7.10;2.40;;;;;;;17.83;58.83;99055.22;5037904;28;20972;-67
2023/04/01 09:25:02;;;;;;;7.27;2.23;;;;;;;17.84;59.74;99051.13;5070228;28;20428;-68
2023/04/01 09:27:39;;;;;;;15.83;4.00;;;;;;;17.88;59.66;99058.50;5043233;28;20449;-66
2023/04/01 09:30:08;;;;;;;19.63;3.30;;;;;;;17.87;59.44;99059.72;5037138;28;20414;-66
2023/04/01 09:32:59;;;;;;;9.13;2.73;;;;;;;17.87;59.75;99064.59;5048806;28;20430;-67
2023/04/01 09:35:36;;;;;;;13.70;2.27;;;;;;;17.90;59.76;99063.78;5044875;28;20519;-67
2023/04/01 09:38:22;;;;;;;19.13;2.80;;;;;;;17.91;59.64;99066.22;5052512;28;20760;-67
2023/04/01 09:41:21;;;;;;;12.23;2.50;;;;;;;17.93;59.57;99065.81;5036804;28;20488;-66
2023/04/01 09:44:14;;;;;;;7.37;2.20;;;;;;;17.93;59.83;99062.97;5034814;28;20990;-67
2023/04/01 09:47:07;;;;;;;6.43;2.10;;;;;;;17.94;59.40;99076.84;5031661;28;20465;-66
2023/04/01 09:49:42;;;;;;;4.43;2.00;;;;;;;17.91;59.76;99068.28;5052188;28;20905;-66
2023/04/01 09:52:17;;;;;;;10.70;2.63;;;;;;;17.88;59.92;99067.06;5039089;28;20497;-67
2023/04/01 09:55:04;;;;;;;4.23;2.30;;;;;;;17.91;59.93;99066.22;5049539;28;20402;-67
2023/04/01 09:57:39;;;;;;;13.20;2.50;;;;;;;17.90;59.44;99073.16;5051967;28;20442;-66
2023/04/01 10:00:25;;;;;;;8.43;2.07;;;;;;;17.88;59.66;99067.06;5063004;28;20516;-67
2023/04/01 10:03:21;;;;;;;5.80;2.33;;;;;;;17.92;59.85;99073.59;5035255;28;21042;-66
2023/04/01 10:06:14;;;;;;;7.10;2.60;;;;;;;17.92;59.95;99075.63;5081063;28;20895;-67
2023/04/01 10:08:42;;;;;;;6.03;1.97;;;;;;;17.90;60.11;99078.88;5049312;28;20417;-67
2023/04/01 10:12:05;;;;;;;8.30;2.03;;;;;;;17.90;60.11;99083.78;5049240;28;20402;-67
2023/04/01 10:14:45;;;;;;;7.07;2.27;;;;;;;17.91;59.97;99082.56;4949211;29;20417;-66
2023/04/01 10:17:20;;;;;;;5.70;2.37;;;;;;;17.91;59.94;99074.78;4936391;28;20544;-67
2023/04/01 10:20:09;;;;;;;9.43;2.20;;;;;;;17.90;60.25;99081.72;5026947;28;20420;-67
2023/04/01 10:22:58;;;;;;;14.67;2.57;;;;;;;17.90;60.24;99086.63;5048280;28;20560;-66
2023/04/01 10:25:54;;;;;;;5.47;1.70;;;;;;;17.91;60.07;99079.69;5036934;28;20476;-67
2023/04/01 10:28:54;;;;;;;6.07;2.20;;;;;;;17.92;60.19;99078.47;5036323;28;20429;-66
2023/04/01 10:31:50;;;;;;;13.20;2.87;;;;;;;17.91;60.02;99077.63;5039570;28;20429;-66
2023/04/01 10:34:22;;;;;;;8.00;2.20;;;;;;;17.92;59.89;99085.00;5048459;28;20398;-66
2023/04/01 10:36:54;;;;;;;6.80;2.10;;;;;;;17.94;60.11;99085.41;5050998;28;20447;-66
2023/04/01 10:39:57;;;;;;;7.73;2.30;;;;;;;17.92;60.04;99090.72;5051807;28;20401;-66
2023/04/01 10:42:44;;;;;;;6.93;2.03;;;;;;;17.89;59.93;99090.69;5066983;28;20832;-66
2023/04/01 10:45:25;;;;;;;8.40;1.87;;;;;;;17.92;59.99;99093.56;5050223;28;20869;-66
2023/04/01 10:48:00;;;;;;;7.43;2.20;;;;;;;17.95;60.30;99089.06;5035339;28;20442;-67
2023/04/01 10:50:44;;;;;;;7.00;1.90;;;;;;;17.93;60.27;99095.19;5030156;28;20425;-67
2023/04/01 10:53:18;;;;;;;6.87;1.93;;;;;;;17.95;59.91;99094.78;5057711;28;21465;-67
2023/04/01 10:56:09;;;;;;;5.93;2.20;;;;;;;17.90;60.06;99090.28;5048747;28;20397;-66
2023/04/01 10:59:19;;;;;;;5.80;1.73;;;;;;;17.92;60.35;99096.44;5030677;28;20482;-67
2023/04/01 11:02:19;;;;;;;5.30;2.23;;;;;;;17.93;59.94;99102.94;4958889;28;20582;-67
2023/04/01 11:05:09;;;;;;;9.20;2.20;;;;;;;17.91;60.29;99089.06;5045622;28;20415;-67
2023/04/01 11:07:53;;;;;;;6.60;1.90;;;;;;;17.89;60.46;99091.53;5067580;28;20461;-66
2023/04/01 11:10:43;;;;;;;7.20;2.07;;;;;;;17.92;60.11;99102.13;5048592;28;20390;-66
2023/04/01 11:13:31;;;;;;;6.27;2.30;;;;;;;17.92;60.07;99096.44;5053418;28;20426;-66
2023/04/01 11:16:27;;;;;;;6.30;1.93;;;;;;;17.91;60.54;99103.34;5049686;28;20501;-66
2023/04/01 11:19:23;;;;;;;3.73;1.70;;;;;;;17.91;60.19;99106.19;5055215;28;20425;-66
2023/04/01 11:22:14;;;;;;;3.50;1.40;;;;;;;17.92;60.50;99099.28;5057101;28;20538;-66
2023/04/01 11:25:33;;;;;;;3.83;1.50;;;;;;;17.91;60.35;99100.47;5049787;28;20441;-66
2023/04/01 11:28:02;;;;;;;4.97;2.13;;;;;;;17.92;60.30;99095.59;4963095;28;20452;-67
2023/04/01 11:30:49;;;;;;;6.00;2.00;;;;;;;17.91;60.27;99094.78;4947269;28;20449;-67
2023/04/01 11:33:46;;;;;;;8.90;2.00;;;;;;;17.76;59.72;99113.09;5026578;28;20445;-67
2023/04/01 11:36:45;;;;;;;4.03;1.50;;;;;;;17.58;57.84;99114.28;5007023;28;20445;-67
2023/04/01 11:39:32;;;;;;;4.30;1.33;;;;;;;17.37;57.88;99117.88;5052748;28;20425;-67
2023/04/01 11:42:32;;;;;;;3.50;1.20;;;;;;;17.22;57.81;99133.28;5033212;28;20472;-68
2023/04/01 11:45:16;;;;;;;1.97;1.13;;;;;;;17.26;57.73;99124.75;5053881;28;20849;-68
2023/04/01 11:47:57;;;;;;;6.50;1.30;;;;;;;17.43;57.64;99135.44;5052536;28;20932;-69
2023/04/01 11:50:43;;;;;;;3.10;1.37;;;;;;;17.56;56.87;99133.84;5054741;28;20442;-68
2023/04/01 11:53:29;;;;;;;7.67;2.67;;;;;;;17.61;56.81;99119.19;5051309;28;20549;-68
2023/04/01 11:56:22;;;;;;;2.20;1.13;;;;;;;17.69;56.64;99124.50;5054165;28;20438;-68
2023/04/01 11:59:34;;;;;;;5.73;1.50;;;;;;;17.79;56.50;99117.19;5049652;28;20433;-68
2023/04/01 12:02:20;;;;;;;7.20;2.03;;;;;;;17.89;56.29;99122.09;5029841;28;20456;-68
2023/04/01 12:05:01;;;;;;;2.60;1.30;;;;;;;17.95;55.59;99115.59;5076782;28;20420;-68
2023/04/01 12:07:48;;;;;;;4.87;1.70;;;;;;;17.99;55.77;99127.84;5075399;28;20473;-68
2023/04/01 12:10:32;;;;;;;3.40;1.17;;;;;;;18.02;55.78;99123.34;5054041;28;20807;-68